Visit the IPS Meteostar Home Page IPSM Central Park FORECAST

New York, New York

55

62

72

72

72

72

72

72

42
42
50
55
55
52
55
58

5 miles away at Central Park 22:51 GMT

Weather:

 Partly Cloudy 

Wind:

NW 9 mph

Temperature:

55 ° F

Pressure:

30.13

Dew Point:

36 ° F

Relative Humidity:

48

Feels Like:

55 ° F

Visibility:

10 miles


Aviation Observations:

KNYC 162251Z AUTO 31008KT 10SM SCT050 13/02 A3013 RMK AO2 SLP194 T01280022 $ =

National Weather Service Forecast:
New York (Manhattan)
740 PM EDT MON OCT 16 2017

TONIGHT

Mostly clear. Cooler with lows in the lower 40s. northwest winds 15 to 20 mph. Gusts up to 30 mph this evening.

TUESDAY

Sunny. Highs in the lower 60s. Northwest winds 5 to 10 mph.

TUESDAY NIGHT

Clear. Lows around 50. Southwest winds around 5 mph.

WEDNESDAY

Sunny. Highs in the lower 70s. West winds around 5 mph.

WEDNESDAY NIGHT

Clear. Lows in the mid 50s. Southwest winds around 5 mph.

THURSDAY

Sunny. Highs in the lower 70s.

THURSDAY NIGHT

Mostly clear. Lows in the mid 50s.

FRIDAY

Sunny. Highs in the lower 70s.

FRIDAY NIGHT

Clear. Lows in the lower 50s.

SATURDAY

Sunny. Highs in the lower 70s.

SATURDAY NIGHT

Mostly clear. Lows in the mid 50s.

SUNDAY

Mostly sunny. Highs in the lower 70s.

SUNDAY NIGHT

Partly cloudy. Lows in the upper 50s.

MONDAY

Partly sunny. Highs in the lower 70s.


Visit the IPS Meteostar Home Page